Time;durP1;ratioP1;P1;durP2;ratioP2;P2;SDS_P1;SDS_P2;PMS_P1;PMS_P2;Temp;Humidity;BMP_temperature;BMP_pressure;BME280_temperature;BME280_humidity;BME280_pressure;Samples;Min_cycle;Max_cycle;Signal;HPM_P1;HPM_P2
2022/11/10 00:02:24;;;;;;;3.38;0.80;;;;;;;;;;4974326;28;20450;-88
2022/11/10 00:04:49;;;;;;;2.78;0.80;;;;;;;;;;4985656;28;20057;-87
2022/11/10 00:07:15;;;;;;;1.75;0.82;;;;;;;;;;4976500;28;20038;-88
2022/11/10 00:09:40;;;;;;;1.92;0.40;;;;;;;;;;4986764;28;20037;-87
2022/11/10 00:12:05;;;;;;;1.17;0.93;;;;;;;;;;4979113;28;20038;-89
2022/11/10 00:17:15;;;;;;;2.90;0.63;;;;;;;;;;4979853;28;20045;-86
2022/11/10 00:19:40;;;;;;;1.35;0.77;;;;;;;;;;4979926;28;20038;-87
2022/11/10 00:22:05;;;;;;;1.83;0.68;;;;;;;;;;4974448;28;20077;-87
2022/11/10 00:24:31;;;;;;;1.83;0.60;;;;;;;;;;4986313;28;20039;-89
2022/11/10 00:26:56;;;;;;;0.82;0.50;;;;;;;;;;4983414;28;20046;-87
2022/11/10 00:29:22;;;;;;;1.05;0.65;;;;;;;;;;4961075;28;20049;-86
2022/11/10 00:31:47;;;;;;;1.77;0.70;;;;;;;;;;4980892;28;20054;-86
2022/11/10 00:34:14;;;;;;;1.75;0.57;;;;;;;;;;4977246;28;20118;-86
2022/11/10 00:36:40;;;;;;;1.20;0.60;;;;;;;;;;4990846;28;20038;-86
2022/11/10 00:39:06;;;;;;;1.75;0.70;;;;;;;;;;4975456;28;20032;-87
2022/11/10 00:41:31;;;;;;;2.53;0.70;;;;;;;;;;4983593;28;20065;-85
2022/11/10 00:43:57;;;;;;;1.33;0.60;;;;;;;;;;4979248;28;20039;-87
2022/11/10 00:46:22;;;;;;;1.75;0.68;;;;;;;;;;4984878;28;20166;-86
2022/11/10 00:48:48;;;;;;;1.85;0.80;;;;;;;;;;4977037;28;20505;-85
2022/11/10 00:51:21;;;;;;;1.20;0.52;;;;;;;;;;4991244;28;20037;-88
2022/11/10 00:53:47;;;;;;;2.22;0.70;;;;;;;;;;4987340;28;20038;-86
2022/11/10 00:56:12;;;;;;;1.75;0.90;;;;;;;;;;4988259;28;20035;-86
2022/11/10 00:58:38;;;;;;;1.40;0.50;;;;;;;;;;4982045;28;20121;-88
2022/11/10 01:01:04;;;;;;;2.65;0.70;;;;;;;;;;4972082;28;20035;-87
2022/11/10 01:03:30;;;;;;;2.20;0.68;;;;;;;;;;4984808;28;20134;-85
2022/11/10 01:05:55;;;;;;;3.97;0.80;;;;;;;;;;4977391;28;20102;-85
2022/11/10 01:08:20;;;;;;;1.85;0.63;;;;;;;;;;4975833;28;20034;-84
2022/11/10 01:10:46;;;;;;;1.10;0.60;;;;;;;;;;4984872;28;20505;-85
2022/11/10 01:13:11;;;;;;;1.55;0.70;;;;;;;;;;4991419;28;20033;-85
2022/11/10 01:15:40;;;;;;;1.05;0.50;;;;;;;;;;4981578;28;20412;-85
2022/11/10 01:18:06;;;;;;;1.10;0.55;;;;;;;;;;5016957;28;20427;-87
2022/11/10 01:20:32;;;;;;;1.60;0.63;;;;;;;;;;4983913;28;20110;-85
2022/11/10 01:22:58;;;;;;;0.95;0.60;;;;;;;;;;4976277;28;20042;-86
2022/11/10 01:25:23;;;;;;;1.23;0.47;;;;;;;;;;4976712;28;20034;-84
2022/11/10 01:27:50;;;;;;;2.22;0.77;;;;;;;;;;4979677;28;20089;-85
2022/11/10 01:30:15;;;;;;;1.23;0.60;;;;;;;;;;4974537;28;20042;-85
2022/11/10 01:32:41;;;;;;;0.93;0.60;;;;;;;;;;4975139;28;20119;-84
2022/11/10 01:35:07;;;;;;;0.85;0.50;;;;;;;;;;5015686;28;20089;-85
2022/11/10 01:37:32;;;;;;;0.85;0.50;;;;;;;;;;4983722;28;20113;-84
2022/11/10 01:39:57;;;;;;;3.80;0.73;;;;;;;;;;4990005;28;20491;-84
2022/11/10 01:42:37;;;;;;;2.50;0.50;;;;;;;;;;4982561;28;20088;-85
2022/11/10 01:45:21;;;;;;;1.15;0.57;;;;;;;;;;4983040;28;20066;-86
2022/11/10 01:47:50;;;;;;;0.88;0.50;;;;;;;;;;4982568;28;20495;-85
2022/11/10 01:50:17;;;;;;;1.27;0.82;;;;;;;;;;4979239;28;20038;-85
2022/11/10 01:52:46;;;;;;;1.10;0.60;;;;;;;;;;4964692;28;20043;-86
2022/11/10 01:55:11;;;;;;;2.38;1.08;;;;;;;;;;4987228;28;20061;-85
2022/11/10 01:57:37;;;;;;;0.70;0.47;;;;;;;;;;4979028;28;20077;-86
2022/11/10 02:00:04;;;;;;;0.40;0.40;;;;;;;;;;4983783;28;20038;-85
2022/11/10 02:02:41;;;;;;;1.15;0.60;;;;;;;;;;4981577;28;20041;-85
2022/11/10 02:05:07;;;;;;;1.33;0.60;;;;;;;;;;4984277;28;20478;-83
2022/11/10 02:07:33;;;;;;;1.60;0.50;;;;;;;;;;4980281;28;20042;-84
2022/11/10 02:10:01;;;;;;;1.00;0.55;;;;;;;;;;4990560;28;20069;-85
2022/11/10 02:12:37;;;;;;;1.25;0.65;;;;;;;;;;4975276;28;20042;-85
2022/11/10 02:15:04;;;;;;;1.88;0.63;;;;;;;;;;4980858;28;20022;-85
2022/11/10 02:17:29;;;;;;;1.05;0.50;;;;;;;;;;4978890;28;20041;-84
2022/11/10 02:19:58;;;;;;;1.08;0.65;;;;;;;;;;4974992;28;20110;-85
2022/11/10 02:22:24;;;;;;;1.45;0.70;;;;;;;;;;4995056;28;20034;-83
2022/11/10 02:24:49;;;;;;;1.80;0.50;;;;;;;;;;4989324;28;20031;-85
2022/11/10 02:27:14;;;;;;;0.98;0.50;;;;;;;;;;4989546;28;20031;-87
2022/11/10 02:29:40;;;;;;;1.25;0.55;;;;;;;;;;4989312;28;20119;-85
2022/11/10 02:32:05;;;;;;;1.10;0.50;;;;;;;;;;4977228;28;20117;-86
2022/11/10 02:34:31;;;;;;;1.88;0.47;;;;;;;;;;4986615;28;20426;-85
2022/11/10 02:36:56;;;;;;;1.27;0.57;;;;;;;;;;4990412;28;20034;-86
2022/11/10 02:39:21;;;;;;;1.33;0.60;;;;;;;;;;4987102;28;20504;-85
2022/11/10 02:41:47;;;;;;;2.60;0.60;;;;;;;;;;4988760;28;20053;-86
2022/11/10 02:44:12;;;;;;;1.70;0.70;;;;;;;;;;4984737;28;20479;-85
2022/11/10 02:46:37;;;;;;;1.95;0.65;;;;;;;;;;4978664;28;20097;-85
2022/11/10 02:49:03;;;;;;;2.17;0.50;;;;;;;;;;4990979;28;20037;-85
2022/11/10 02:51:28;;;;;;;1.38;0.52;;;;;;;;;;4979651;28;20038;-86
2022/11/10 02:53:53;;;;;;;1.23;0.50;;;;;;;;;;4994306;28;20513;-86
2022/11/10 02:56:19;;;;;;;0.75;0.45;;;;;;;;;;4977303;28;20026;-86
2022/11/10 02:58:44;;;;;;;0.90;0.50;;;;;;;;;;4977192;28;20047;-87
2022/11/10 03:01:10;;;;;;;1.00;0.50;;;;;;;;;;4977016;28;20096;-86
2022/11/10 03:03:35;;;;;;;0.50;0.40;;;;;;;;;;4983873;28;20022;-85
2022/11/10 03:06:01;;;;;;;1.17;0.43;;;;;;;;;;4981426;28;20038;-85
2022/11/10 03:08:26;;;;;;;0.95;0.40;;;;;;;;;;4973785;28;20039;-86
2022/11/10 03:10:53;;;;;;;1.13;0.50;;;;;;;;;;5013061;28;20130;-84
2022/11/10 03:13:18;;;;;;;0.98;0.50;;;;;;;;;;4995302;28;20066;-86
2022/11/10 03:15:46;;;;;;;0.93;0.50;;;;;;;;;;4980807;28;20117;-83
2022/11/10 03:18:11;;;;;;;0.38;0.30;;;;;;;;;;5021357;28;20026;-86
2022/11/10 03:20:37;;;;;;;0.80;0.40;;;;;;;;;;4988251;28;20049;-86
2022/11/10 03:23:03;;;;;;;1.52;0.63;;;;;;;;;;4991283;28;20042;-85
2022/11/10 03:25:29;;;;;;;0.93;0.40;;;;;;;;;;4978835;28;20586;-85
2022/11/10 03:27:55;;;;;;;0.95;0.43;;;;;;;;;;4995026;28;20113;-86
2022/11/10 03:30:20;;;;;;;0.95;0.60;;;;;;;;;;4982662;28;20060;-84
2022/11/10 03:32:45;;;;;;;13.68;0.77;;;;;;;;;;4976482;28;20035;-85
2022/11/10 03:35:11;;;;;;;0.98;0.50;;;;;;;;;;4985406;28;20701;-85
2022/11/10 03:37:40;;;;;;;1.33;0.60;;;;;;;;;;4976338;28;20153;-85
2022/11/10 03:40:06;;;;;;;0.80;0.38;;;;;;;;;;4992130;28;20038;-86
2022/11/10 03:42:31;;;;;;;1.10;0.50;;;;;;;;;;4983182;28;20046;-85
2022/11/10 03:44:56;;;;;;;0.70;0.40;;;;;;;;;;4979029;28;20039;-86
2022/11/10 03:47:22;;;;;;;0.88;0.50;;;;;;;;;;4975993;28;20027;-86
2022/11/10 03:49:47;;;;;;;0.57;0.40;;;;;;;;;;4987500;28;20486;-87
2022/11/10 03:52:13;;;;;;;1.58;0.60;;;;;;;;;;4986208;28;20046;-86
2022/11/10 03:54:39;;;;;;;0.85;0.40;;;;;;;;;;4988762;28;20031;-85
2022/11/10 03:57:04;;;;;;;1.00;0.57;;;;;;;;;;4990222;28;20049;-84
2022/11/10 03:59:30;;;;;;;0.93;0.70;;;;;;;;;;4984549;28;20045;-86
2022/11/10 04:01:55;;;;;;;0.70;0.43;;;;;;;;;;5019975;28;20046;-85
2022/11/10 04:09:48;;;;;;;1.30;0.50;;;;;;;;;;4980086;28;20045;-85
2022/11/10 04:17:47;;;;;;;;;;;;;;;;;;4984797;28;20126;-85
2022/11/10 04:20:12;;;;;;;0.98;0.50;;;;;;;;;;5017942;28;19914;-85
2022/11/10 04:25:21;;;;;;;;;;;;;;;;;;4989894;28;20036;-85
2022/11/10 04:27:47;;;;;;;0.82;0.32;;;;;;;;;;4984049;28;20029;-85
2022/11/10 04:30:12;;;;;;;1.60;0.63;;;;;;;;;;4975250;28;20026;-84
2022/11/10 04:32:37;;;;;;;1.27;0.50;;;;;;;;;;4976218;28;20061;-86
2022/11/10 04:35:03;;;;;;;1.90;0.63;;;;;;;;;;4984957;28;20380;-84
2022/11/10 04:37:28;;;;;;;1.33;0.63;;;;;;;;;;4979778;28;20030;-86
2022/11/10 04:39:54;;;;;;;2.08;0.70;;;;;;;;;;4979166;28;20031;-86
2022/11/10 04:42:19;;;;;;;2.10;0.65;;;;;;;;;;4976708;28;20041;-86
2022/11/10 04:44:44;;;;;;;1.05;0.88;;;;;;;;;;4989996;28;20035;-86
2022/11/10 04:47:10;;;;;;;0.77;0.35;;;;;;;;;;4980673;28;20030;-86
2022/11/10 04:49:35;;;;;;;0.68;0.40;;;;;;;;;;4981624;28;20372;-85
2022/11/10 04:52:00;;;;;;;0.50;0.40;;;;;;;;;;4975494;28;20162;-86
2022/11/10 04:54:26;;;;;;;2.05;0.50;;;;;;;;;;4983301;28;20141;-86
2022/11/10 04:56:51;;;;;;;0.77;0.40;;;;;;;;;;5006974;28;20035;-87
2022/11/10 04:59:16;;;;;;;1.08;0.50;;;;;;;;;;4977355;28;20043;-86
2022/11/10 05:01:42;;;;;;;1.33;0.50;;;;;;;;;;4979423;28;20038;-87
2022/11/10 05:04:07;;;;;;;2.30;0.45;;;;;;;;;;4983326;28;20095;-86
2022/11/10 05:06:33;;;;;;;0.65;0.50;;;;;;;;;;4978675;28;20379;-86
2022/11/10 05:08:58;;;;;;;1.45;0.40;;;;;;;;;;4990084;28;20463;-85
2022/11/10 05:11:23;;;;;;;2.35;0.55;;;;;;;;;;4975818;28;20173;-84
2022/11/10 05:13:49;;;;;;;1.17;0.40;;;;;;;;;;4990533;28;20035;-86
2022/11/10 05:16:14;;;;;;;1.65;0.40;;;;;;;;;;4980039;28;20139;-87
2022/11/10 05:18:40;;;;;;;0.75;0.50;;;;;;;;;;4988928;28;20038;-86
2022/11/10 05:21:05;;;;;;;0.45;0.40;;;;;;;;;;4982113;28;20031;-87
2022/11/10 05:23:36;;;;;;;0.95;0.40;;;;;;;;;;5020280;28;20038;-85
2022/11/10 05:26:05;;;;;;;1.13;0.50;;;;;;;;;;4990872;28;20046;-88
2022/11/10 05:28:30;;;;;;;2.40;0.40;;;;;;;;;;4985684;28;20034;-86
2022/11/10 05:30:55;;;;;;;1.42;0.52;;;;;;;;;;4973657;28;20403;-87
2022/11/10 05:33:21;;;;;;;1.25;0.47;;;;;;;;;;4987193;28;20038;-87
2022/11/10 05:35:48;;;;;;;1.48;0.55;;;;;;;;;;4977722;28;20089;-87
2022/11/10 05:38:14;;;;;;;1.63;0.40;;;;;;;;;;5010353;28;20086;-85
2022/11/10 05:40:39;;;;;;;1.38;0.50;;;;;;;;;;4974556;28;20047;-85
2022/11/10 05:43:05;;;;;;;1.23;0.60;;;;;;;;;;4982555;28;20031;-85
2022/11/10 05:45:30;;;;;;;15.32;0.70;;;;;;;;;;4977863;28;20039;-85
2022/11/10 05:47:56;;;;;;;0.45;0.30;;;;;;;;;;4980342;28;20126;-84
2022/11/10 05:50:22;;;;;;;0.45;0.30;;;;;;;;;;4982485;28;20493;-84
2022/11/10 05:52:50;;;;;;;2.10;0.57;;;;;;;;;;4978627;28;20490;-84
2022/11/10 05:55:19;;;;;;;1.35;0.40;;;;;;;;;;4987149;28;20022;-84
2022/11/10 05:57:46;;;;;;;0.25;0.25;;;;;;;;;;4984606;28;20118;-84
2022/11/10 06:00:13;;;;;;;0.80;0.65;;;;;;;;;;4972063;28;20125;-84
2022/11/10 06:02:39;;;;;;;0.30;0.30;;;;;;;;;;4982716;28;20092;-84
2022/11/10 06:05:05;;;;;;;0.60;0.30;;;;;;;;;;4984450;28;20043;-84
2022/11/10 06:07:30;;;;;;;2.78;0.30;;;;;;;;;;4981417;28;20047;-85
2022/11/10 06:09:55;;;;;;;0.57;0.43;;;;;;;;;;4978580;28;20049;-84
2022/11/10 06:12:23;;;;;;;0.63;0.40;;;;;;;;;;4980943;28;20034;-85
2022/11/10 06:14:49;;;;;;;0.77;0.40;;;;;;;;;;5000841;28;20367;-85
2022/11/10 06:17:15;;;;;;;2.75;0.47;;;;;;;;;;4975878;28;20042;-85
2022/11/10 06:19:40;;;;;;;0.60;0.40;;;;;;;;;;4987063;28;20041;-85
2022/11/10 06:22:05;;;;;;;1.60;0.55;;;;;;;;;;4975296;28;20038;-85
2022/11/10 06:24:31;;;;;;;0.45;0.40;;;;;;;;;;4985928;28;20039;-85
2022/11/10 06:26:56;;;;;;;0.50;0.30;;;;;;;;;;4976807;28;20035;-85
2022/11/10 06:29:21;;;;;;;0.32;0.30;;;;;;;;;;4983798;28;20518;-84
2022/11/10 06:31:47;;;;;;;2.10;0.60;;;;;;;;;;4989543;28;20078;-85
2022/11/10 06:34:12;;;;;;;0.17;0.17;;;;;;;;;;4981641;28;20521;-84
2022/11/10 06:36:39;;;;;;;1.08;0.43;;;;;;;;;;4974407;28;20050;-85
2022/11/10 06:39:05;;;;;;;0.38;0.30;;;;;;;;;;4984471;28;20542;-86
2022/11/10 06:41:30;;;;;;;2.83;0.50;;;;;;;;;;4976337;28;20077;-85
2022/11/10 06:43:56;;;;;;;1.70;0.50;;;;;;;;;;4982151;28;20046;-85
2022/11/10 06:46:21;;;;;;;0.90;0.40;;;;;;;;;;4977435;28;20497;-86
2022/11/10 06:48:46;;;;;;;0.30;0.30;;;;;;;;;;5011745;28;20125;-85
2022/11/10 06:51:12;;;;;;;0.77;0.40;;;;;;;;;;4975422;28;20438;-85
2022/11/10 06:53:37;;;;;;;1.55;0.50;;;;;;;;;;4975699;28;20037;-86
2022/11/10 06:56:03;;;;;;;0.93;0.40;;;;;;;;;;4977369;28;20495;-86
2022/11/10 06:58:28;;;;;;;1.17;0.30;;;;;;;;;;4981893;28;20084;-85
2022/11/10 07:00:53;;;;;;;1.20;0.52;;;;;;;;;;4972573;28;20471;-89
2022/11/10 07:03:19;;;;;;;0.47;0.28;;;;;;;;;;4986673;28;20034;-93
2022/11/10 07:05:44;;;;;;;0.55;0.40;;;;;;;;;;4976238;28;20125;-83
2022/11/10 07:08:15;;;;;;;0.63;0.50;;;;;;;;;;4983137;28;20509;-82
2022/11/10 07:11:00;;;;;;;0.60;0.40;;;;;;;;;;4992559;28;20030;-86
2022/11/10 07:13:26;;;;;;;0.65;0.30;;;;;;;;;;4981332;28;20034;-85
2022/11/10 07:15:51;;;;;;;0.30;0.30;;;;;;;;;;4981502;28;20029;-85
2022/11/10 07:18:17;;;;;;;7.18;0.50;;;;;;;;;;4980762;28;20039;-86
2022/11/10 07:20:42;;;;;;;0.70;0.40;;;;;;;;;;4980714;28;20125;-85
2022/11/10 07:23:07;;;;;;;0.98;0.40;;;;;;;;;;4974059;28;20030;-87
2022/11/10 07:25:35;;;;;;;2.90;0.50;;;;;;;;;;4969220;28;20117;-87
2022/11/10 07:28:03;;;;;;;0.90;0.47;;;;;;;;;;4983598;28;20081;-88
2022/11/10 07:30:31;;;;;;;3.90;0.40;;;;;;;;;;4990734;28;20026;-87
2022/11/10 07:33:04;;;;;;;0.75;0.40;;;;;;;;;;5002950;28;20486;-88
2022/11/10 07:35:31;;;;;;;0.47;0.38;;;;;;;;;;4979077;28;20047;-87
2022/11/10 07:37:57;;;;;;;0.30;0.30;;;;;;;;;;4986128;28;20058;-85
2022/11/10 07:40:23;;;;;;;0.77;0.40;;;;;;;;;;4976348;28;20045;-84
2022/11/10 07:42:48;;;;;;;1.30;0.60;;;;;;;;;;4985417;28;20041;-84
2022/11/10 07:45:14;;;;;;;1.30;0.45;;;;;;;;;;4966741;28;20093;-86
2022/11/10 07:47:39;;;;;;;1.50;0.40;;;;;;;;;;4992335;28;20039;-81
2022/11/10 07:50:05;;;;;;;1.42;0.50;;;;;;;;;;4982808;28;20083;-91
2022/11/10 07:52:30;;;;;;;1.05;0.50;;;;;;;;;;4973737;28;20046;-81
2022/11/10 07:54:56;;;;;;;0.65;0.30;;;;;;;;;;4984510;28;20467;-84
2022/11/10 07:57:21;;;;;;;1.48;0.43;;;;;;;;;;4977084;28;20463;-85
2022/11/10 07:59:47;;;;;;;0.98;0.50;;;;;;;;;;4970394;28;20053;-82
2022/11/10 08:02:12;;;;;;;1.08;0.50;;;;;;;;;;4982740;28;20030;-88
2022/11/10 08:04:37;;;;;;;1.27;0.40;;;;;;;;;;4975498;28;20051;-83
2022/11/10 08:07:03;;;;;;;0.95;0.50;;;;;;;;;;4969619;28;20031;-83
2022/11/10 08:09:28;;;;;;;0.70;0.40;;;;;;;;;;4977211;28;20093;-85
2022/11/10 08:11:54;;;;;;;0.85;0.60;;;;;;;;;;4977411;28;20043;-83
2022/11/10 08:14:19;;;;;;;2.80;0.50;;;;;;;;;;4991434;28;20042;-82
2022/11/10 08:16:45;;;;;;;4.05;0.60;;;;;;;;;;4977574;28;20483;-81
2022/11/10 08:19:12;;;;;;;1.45;0.47;;;;;;;;;;4983675;28;20042;-81
2022/11/10 08:21:38;;;;;;;0.68;0.40;;;;;;;;;;4970437;28;20519;-87
2022/11/10 08:24:03;;;;;;;7.05;0.70;;;;;;;;;;4983195;28;20030;-81
2022/11/10 08:26:29;;;;;;;5.45;0.60;;;;;;;;;;4983883;28;20035;-84
2022/11/10 08:28:54;;;;;;;2.03;0.60;;;;;;;;;;4976407;28;20122;-79
2022/11/10 08:31:20;;;;;;;0.80;0.50;;;;;;;;;;4985328;28;20055;-83
2022/11/10 08:33:45;;;;;;;0.47;0.40;;;;;;;;;;4973176;28;20049;-80
2022/11/10 08:36:10;;;;;;;2.15;0.50;;;;;;;;;;4974167;28;20437;-81
2022/11/10 08:38:36;;;;;;;0.38;0.30;;;;;;;;;;4973551;28;20077;-84
2022/11/10 08:41:01;;;;;;;2.35;0.93;;;;;;;;;;4952529;28;20051;-83
2022/11/10 08:43:27;;;;;;;9.00;4.90;;;;;;;;;;4978488;28;20046;-81
2022/11/10 08:45:58;;;;;;;13.48;8.07;;;;;;;;;;4973446;28;20372;-85
2022/11/10 08:48:23;;;;;;;13.13;8.77;;;;;;;;;;4974005;28;20494;-85
2022/11/10 08:50:50;;;;;;;11.05;7.68;;;;;;;;;;4981389;28;20045;-88
2022/11/10 08:53:22;;;;;;;11.88;7.40;;;;;;;;;;4994542;28;20134;-92
2022/11/10 08:55:48;;;;;;;9.68;6.47;;;;;;;;;;4979821;28;20062;-87
2022/11/10 08:58:19;;;;;;;9.98;5.90;;;;;;;;;;4940812;28;20047;-88
2022/11/10 09:00:44;;;;;;;9.68;5.90;;;;;;;;;;4987618;28;20031;-87
2022/11/10 09:03:14;;;;;;;9.25;5.80;;;;;;;;;;4980140;28;20111;-83
2022/11/10 09:05:40;;;;;;;10.88;6.20;;;;;;;;;;4956285;28;20046;-84
2022/11/10 09:08:06;;;;;;;9.05;6.25;;;;;;;;;;4994540;28;20034;-82
2022/11/10 09:10:34;;;;;;;8.75;6.03;;;;;;;;;;4981296;28;20871;-82
2022/11/10 09:13:01;;;;;;;10.05;5.88;;;;;;;;;;4980231;28;20045;-78
2022/11/10 09:15:27;;;;;;;9.68;5.72;;;;;;;;;;4986426;28;20034;-77
2022/11/10 09:17:53;;;;;;;9.27;5.60;;;;;;;;;;4989112;28;20398;-90
2022/11/10 09:20:18;;;;;;;8.98;5.60;;;;;;;;;;4969068;28;20038;-82
2022/11/10 09:22:43;;;;;;;9.23;5.20;;;;;;;;;;4973415;28;20031;-84
2022/11/10 09:25:09;;;;;;;6.82;4.45;;;;;;;;;;4968250;28;20035;-83
2022/11/10 09:27:36;;;;;;;7.85;5.20;;;;;;;;;;4955334;28;20080;-83
2022/11/10 09:30:04;;;;;;;8.15;5.40;;;;;;;;;;4962768;28;20031;-82
2022/11/10 09:32:31;;;;;;;8.35;5.07;;;;;;;;;;4952028;28;20059;-81
2022/11/10 09:34:56;;;;;;;8.38;4.55;;;;;;;;;;4952377;28;20488;-82
2022/11/10 09:37:22;;;;;;;7.53;4.80;;;;;;;;;;4967673;28;20061;-81
2022/11/10 09:39:47;;;;;;;7.05;3.95;;;;;;;;;;4987216;28;20042;-82
2022/11/10 09:42:39;;;;;;;6.38;4.00;;;;;;;;;;4990112;28;20053;-82
2022/11/10 09:45:21;;;;;;;7.18;4.03;;;;;;;;;;5006388;28;20410;-84
2022/11/10 09:47:59;;;;;;;6.93;4.05;;;;;;;;;;4990633;28;20490;-82
2022/11/10 09:50:37;;;;;;;7.20;4.32;;;;;;;;;;4989310;28;20406;-79
2022/11/10 09:53:05;;;;;;;6.15;3.83;;;;;;;;;;4986167;28;20046;-82
2022/11/10 09:55:36;;;;;;;6.28;3.92;;;;;;;;;;4981365;28;20489;-81
2022/11/10 09:58:02;;;;;;;8.98;3.80;;;;;;;;;;4971832;28;20038;-82
2022/11/10 10:00:30;;;;;;;6.20;3.88;;;;;;;;;;4987314;28;20184;-81
2022/11/10 10:03:01;;;;;;;5.07;3.33;;;;;;;;;;4972019;28;20894;-83
2022/11/10 10:05:35;;;;;;;5.43;3.42;;;;;;;;;;4970501;28;20035;-79
2022/11/10 10:08:10;;;;;;;4.57;3.10;;;;;;;;;;4972184;28;20054;-81
2022/11/10 10:10:39;;;;;;;5.43;3.13;;;;;;;;;;4975120;28;20047;-81
2022/11/10 10:13:27;;;;;;;5.45;2.97;;;;;;;;;;4972081;28;20039;-82
2022/11/10 10:16:03;;;;;;;4.88;3.08;;;;;;;;;;4989451;28;20066;-82
2022/11/10 10:18:41;;;;;;;4.57;2.75;;;;;;;;;;4991588;28;20046;-82
2022/11/10 10:21:21;;;;;;;5.32;3.05;;;;;;;;;;4953196;28;20121;-82
2022/11/10 10:23:52;;;;;;;5.10;3.03;;;;;;;;;;4969934;28;20117;-84
2022/11/10 10:26:22;;;;;;;3.88;2.40;;;;;;;;;;4979653;28;20066;-87
2022/11/10 10:28:48;;;;;;;5.10;2.92;;;;;;;;;;4971089;28;20062;-88
2022/11/10 10:31:18;;;;;;;5.78;3.00;;;;;;;;;;4989392;28;20129;-82
2022/11/10 10:33:45;;;;;;;4.47;2.42;;;;;;;;;;4991958;28;20065;-82
2022/11/10 10:36:26;;;;;;;8.30;2.53;;;;;;;;;;4972353;28;20512;-82
2022/11/10 10:38:58;;;;;;;4.35;2.60;;;;;;;;;;4987114;28;20383;-84
2022/11/10 10:41:26;;;;;;;3.70;2.17;;;;;;;;;;4986343;28;20089;-84
2022/11/10 10:43:55;;;;;;;5.25;2.17;;;;;;;;;;4987687;28;20085;-82
2022/11/10 10:46:25;;;;;;;4.10;2.40;;;;;;;;;;4974147;28;20043;-82
2022/11/10 10:49:14;;;;;;;3.13;2.05;;;;;;;;;;4965969;28;20046;-82
2022/11/10 10:51:39;;;;;;;4.50;2.40;;;;;;;;;;5006493;28;20097;-82
2022/11/10 10:54:24;;;;;;;5.43;2.20;;;;;;;;;;4976064;28;20434;-82
2022/11/10 10:56:49;;;;;;;5.05;2.13;;;;;;;;;;5010230;28;20955;-83
2022/11/10 10:59:20;;;;;;;3.45;1.90;;;;;;;;;;4983323;28;20039;-82
2022/11/10 11:01:45;;;;;;;4.70;2.10;;;;;;;;;;4986786;28;20510;-83
2022/11/10 11:04:37;;;;;;;4.80;2.22;;;;;;;;;;4973904;28;20062;-83
2022/11/10 11:07:20;;;;;;;4.32;1.88;;;;;;;;;;4954874;28;20075;-83
2022/11/10 11:09:45;;;;;;;3.10;1.70;;;;;;;;;;4954878;29;20035;-83
2022/11/10 11:12:16;;;;;;;4.47;2.28;;;;;;;;;;4970604;28;20131;-84
2022/11/10 11:14:42;;;;;;;3.55;1.70;;;;;;;;;;4978327;28;20481;-82
2022/11/10 11:17:16;;;;;;;3.33;1.90;;;;;;;;;;4993921;28;20069;-83
2022/11/10 11:19:41;;;;;;;3.55;1.88;;;;;;;;;;4990789;28;20526;-84
2022/11/10 11:22:35;;;;;;;3.67;1.77;;;;;;;;;;4975555;28;20070;-84
2022/11/10 11:25:14;;;;;;;4.60;1.95;;;;;;;;;;4956261;28;20122;-83
2022/11/10 11:28:02;;;;;;;3.83;1.70;;;;;;;;;;4975788;28;20035;-83
2022/11/10 11:30:37;;;;;;;2.85;1.65;;;;;;;;;;4991005;28;20038;-83
2022/11/10 11:33:18;;;;;;;2.83;1.55;;;;;;;;;;4992599;28;20470;-83
2022/11/10 11:35:45;;;;;;;3.72;2.08;;;;;;;;;;4977974;28;20049;-83
2022/11/10 11:38:23;;;;;;;3.50;1.60;;;;;;;;;;4973678;28;20122;-83
2022/11/10 11:40:55;;;;;;;4.82;1.50;;;;;;;;;;4981946;28;20533;-85
2022/11/10 11:43:21;;;;;;;1.97;1.20;;;;;;;;;;4969772;28;20022;-83
2022/11/10 11:45:58;;;;;;;2.60;1.40;;;;;;;;;;4993983;28;20390;-83
2022/11/10 11:48:45;;;;;;;3.35;1.45;;;;;;;;;;4994194;28;20042;-83
2022/11/10 11:51:21;;;;;;;3.50;1.50;;;;;;;;;;4974644;28;20038;-83
2022/11/10 11:54:00;;;;;;;2.35;1.23;;;;;;;;;;4976107;28;20078;-83
2022/11/10 11:56:30;;;;;;;5.35;1.42;;;;;;;;;;4994441;28;20046;-83
2022/11/10 11:59:23;;;;;;;2.30;1.23;;;;;;;;;;4984548;28;20097;-83
2022/11/10 12:02:17;;;;;;;3.30;1.30;;;;;;;;;;4981984;28;20390;-83
2022/11/10 12:04:53;;;;;;;1.95;1.08;;;;;;;;;;4954602;28;20499;-83
2022/11/10 12:07:50;;;;;;;2.83;1.30;;;;;;;;;;4966290;28;20051;-83
2022/11/10 12:10:28;;;;;;;1.83;1.08;;;;;;;;;;4971535;28;20117;-84
2022/11/10 12:13:09;;;;;;;2.70;1.17;;;;;;;;;;4983333;28;20049;-81
2022/11/10 12:15:34;;;;;;;2.90;1.20;;;;;;;;;;4977830;28;20093;-80
2022/11/10 12:18:00;;;;;;;3.65;1.23;;;;;;;;;;4955544;28;20403;-87
2022/11/10 12:20:50;;;;;;;2.50;1.05;;;;;;;;;;4987255;28;20109;-81
2022/11/10 12:23:21;;;;;;;3.33;0.80;;;;;;;;;;4976758;28;20046;-81
2022/11/10 12:26:23;;;;;;;2.90;0.95;;;;;;;;;;4992547;28;20062;-81
2022/11/10 12:28:58;;;;;;;5.43;1.10;;;;;;;;;;4954238;28;20039;-81
2022/11/10 12:31:24;;;;;;;2.05;1.05;;;;;;;;;;4969532;28;20048;-81
2022/11/10 12:33:56;;;;;;;1.92;1.10;;;;;;;;;;4989195;28;20035;-81
2022/11/10 12:36:23;;;;;;;2.10;0.93;;;;;;;;;;4978583;28;20031;-82
2022/11/10 12:39:00;;;;;;;1.95;1.00;;;;;;;;;;4988232;28;20081;-82
2022/11/10 12:41:32;;;;;;;3.35;0.85;;;;;;;;;;4972753;28;20066;-80
2022/11/10 12:44:16;;;;;;;2.47;0.90;;;;;;;;;;4980215;28;20049;-80
2022/11/10 12:46:41;;;;;;;;;;;;;;;;;;4980523;28;20050;-80
2022/11/10 12:49:18;;;;;;;2.58;1.00;;;;;;;;;;4991437;28;19924;-81
2022/11/10 12:51:50;;;;;;;1.50;0.90;;;;;;;;;;4982582;28;20554;-83
2022/11/10 12:54:16;;;;;;;2.47;0.90;;;;;;;;;;4951660;28;20053;-80
2022/11/10 12:57:02;;;;;;;2.22;0.95;;;;;;;;;;4972244;28;20105;-80
2022/11/10 12:59:30;;;;;;;1.95;1.00;;;;;;;;;;4972453;28;20042;-86
2022/11/10 13:02:00;;;;;;;1.58;0.82;;;;;;;;;;4970283;28;20076;-85
2022/11/10 13:04:25;;;;;;;1.70;0.80;;;;;;;;;;4988159;28;20126;-85
2022/11/10 13:07:01;;;;;;;2.33;1.00;;;;;;;;;;4977022;28;21670;-86
2022/11/10 13:09:29;;;;;;;2.20;1.00;;;;;;;;;;4988331;28;20039;-86
2022/11/10 13:12:06;;;;;;;1.92;0.90;;;;;;;;;;4968917;28;20046;-89
2022/11/10 13:14:31;;;;;;;1.63;0.90;;;;;;;;;;4954575;28;20166;-85
2022/11/10 13:16:57;;;;;;;2.05;1.00;;;;;;;;;;4971895;28;20114;-89
2022/11/10 13:19:22;;;;;;;1.25;0.70;;;;;;;;;;4978672;28;20030;-89
2022/11/10 13:21:51;;;;;;;2.00;1.00;;;;;;;;;;4982881;28;20034;-86
2022/11/10 13:24:24;;;;;;;2.00;0.98;;;;;;;;;;4971552;28;20525;-85
2022/11/10 13:26:52;;;;;;;2.40;0.82;;;;;;;;;;4977937;28;20109;-86
2022/11/10 13:29:19;;;;;;;2.00;0.90;;;;;;;;;;4979543;28;20038;-93
2022/11/10 13:31:50;;;;;;;1.88;1.00;;;;;;;;;;4972789;28;20059;-85
2022/11/10 13:34:30;;;;;;;2.00;0.80;;;;;;;;;;4976880;28;20046;-92
2022/11/10 13:36:57;;;;;;;1.80;0.90;;;;;;;;;;4968965;28;20046;-86
2022/11/10 13:39:25;;;;;;;1.83;0.90;;;;;;;;;;4950360;28;20808;-88
2022/11/10 13:42:01;;;;;;;5.03;1.25;;;;;;;;;;4971938;28;20038;-87
2022/11/10 13:44:53;;;;;;;1.83;0.90;;;;;;;;;;4972019;28;20035;-88
2022/11/10 13:47:40;;;;;;;1.50;0.80;;;;;;;;;;4952079;28;20039;-89
2022/11/10 13:50:22;;;;;;;5.90;1.25;;;;;;;;;;4969029;28;20043;-85
2022/11/10 13:52:55;;;;;;;1.63;0.88;;;;;;;;;;4991640;28;20037;-87
2022/11/10 13:55:29;;;;;;;2.43;0.80;;;;;;;;;;4973215;28;20506;-89
2022/11/10 13:58:01;;;;;;;1.73;1.00;;;;;;;;;;4954022;28;20031;-84
2022/11/10 14:00:34;;;;;;;1.63;0.70;;;;;;;;;;4971313;28;20113;-87
2022/11/10 14:03:06;;;;;;;1.90;0.90;;;;;;;;;;4977144;28;20478;-86
2022/11/10 14:05:37;;;;;;;1.15;0.60;;;;;;;;;;4989097;28;20537;-84
2022/11/10 14:08:10;;;;;;;1.92;0.90;;;;;;;;;;4982416;28;20035;-85
2022/11/10 14:10:47;;;;;;;1.33;0.70;;;;;;;;;;4973921;28;20105;-86
2022/11/10 14:13:16;;;;;;;1.27;0.68;;;;;;;;;;4967668;28;20122;-84
2022/11/10 14:15:44;;;;;;;1.27;0.70;;;;;;;;;;4968215;28;20047;-84
2022/11/10 14:18:18;;;;;;;2.70;0.80;;;;;;;;;;4957534;28;20146;-78
2022/11/10 14:20:45;;;;;;;0.93;0.63;;;;;;;;;;4984906;28;20097;-79
2022/11/10 14:23:28;;;;;;;1.70;0.70;;;;;;;;;;4980742;28;20030;-81
2022/11/10 14:25:58;;;;;;;1.33;0.57;;;;;;;;;;4982013;28;20069;-78
2022/11/10 14:28:30;;;;;;;1.35;0.70;;;;;;;;;;4988200;28;20034;-79
2022/11/10 14:30:56;;;;;;;1.33;0.70;;;;;;;;;;4979601;28;20491;-78
2022/11/10 14:33:22;;;;;;;1.80;0.77;;;;;;;;;;4986941;28;20034;-78
2022/11/10 14:35:48;;;;;;;1.77;0.70;;;;;;;;;;4966436;28;20031;-78
2022/11/10 14:38:20;;;;;;;1.15;0.60;;;;;;;;;;4958033;28;20042;-79
2022/11/10 14:40:45;;;;;;;1.20;0.80;;;;;;;;;;4990665;28;20418;-82
2022/11/10 14:43:33;;;;;;;1.42;0.70;;;;;;;;;;4973679;28;20035;-85
2022/11/10 14:45:59;;;;;;;1.02;0.60;;;;;;;;;;4955158;28;20055;-86
2022/11/10 14:48:31;;;;;;;2.28;0.77;;;;;;;;;;4988591;28;20098;-85
2022/11/10 14:51:12;;;;;;;1.27;0.65;;;;;;;;;;4987413;28;20401;-82
2022/11/10 14:53:38;;;;;;;1.00;0.60;;;;;;;;;;4993201;28;20042;-80
2022/11/10 14:56:06;;;;;;;0.90;0.55;;;;;;;;;;4993942;28;20042;-81
2022/11/10 14:58:34;;;;;;;1.88;0.63;;;;;;;;;;4993757;28;20101;-83
2022/11/10 15:01:01;;;;;;;4.78;0.60;;;;;;;;;;4959831;28;20042;-86
2022/11/10 15:03:41;;;;;;;3.65;0.70;;;;;;;;;;4981907;28;20038;-85
2022/11/10 15:06:09;;;;;;;2.83;0.80;;;;;;;;;;4974107;28;20098;-85
2022/11/10 15:08:34;;;;;;;2.50;0.50;;;;;;;;;;4999927;28;20050;-86
2022/11/10 15:11:00;;;;;;;1.35;0.70;;;;;;;;;;4974378;28;20133;-85